Pagrindinis puslapis
METAR-TAF:

METAR-TAF

Oro uostai :

Gatas, Libija

platuma: 25-08N, ilguma: 010-09E, Aukštis: 699 m

METAR: trūkstamas

Laikas: 17:11 (15:11 UTC)

Prognozė

Ataskaita buvo paskelbta 16 valandos ir 11 minutes, ne 23:00 UTC
Prognozė galioja nuo 25 metu 00 UTC su 25 metu 24 UTC
Vėjas 12 kt iš Šiaurės
Matomumas: 8000 m

TAF: HLGT 242300Z 2500/2524 36012KT 8000 NSC

Orai ataskaitas ir orų prognozės (METAR, TAF).

turimą stotys yra geltonos ir raudonos taškus žemėlapyje.

Perkelti pele per norėdami pamatyti stoties vardą.

Tada spustelėkite, norėdami matyti oro stebėjimo ir prognozės.

Norėdami pakeisti žemėlapį: spustelėkite ant žalios mygtukų su juodo kryžiaus žemyn,; žalią mygtuką su brūkšneliu, jei norite nutolinti; arba žalių rodyklių gretimoms žemėlapius.


METAR-TAF: